Time;durP1;ratioP1;P1;durP2;ratioP2;P2;SDS_P1;SDS_P2;PMS_P1;PMS_P2;Temp;Humidity;BMP_temperature;BMP_pressure;BME280_temperature;BME280_humidity;BME280_pressure;Samples;Min_cycle;Max_cycle;Signal;HPM_P1;HPM_P2
2022/05/15 00:01:21;;;;;;;24.23;8.90;;;;;;;14.21;69.31;101922.81;5095930;28;20437;-63
2022/05/15 00:03:47;;;;;;;20.73;8.20;;;;;;;14.12;69.09;101920.28;5095458;28;20472;-63
2022/05/15 00:06:12;;;;;;;20.80;8.40;;;;;;;14.08;69.34;101913.31;5095553;28;20032;-63
2022/05/15 00:08:38;;;;;;;22.98;8.30;;;;;;;14.07;69.91;101908.06;5095249;28;20105;-63
2022/05/15 00:11:04;;;;;;;23.40;8.30;;;;;;;14.06;70.57;101922.09;5095553;28;20032;-63
2022/05/15 00:13:31;;;;;;;23.65;8.85;;;;;;;14.11;69.94;101925.56;5095644;28;20070;-64
2022/05/15 00:15:56;;;;;;;22.35;8.75;;;;;;;14.07;69.78;101916.84;5095453;28;20036;-64
2022/05/15 00:18:22;;;;;;;23.25;8.07;;;;;;;13.93;69.38;101916.97;5095590;28;20028;-63
2022/05/15 00:20:49;;;;;;;26.08;8.65;;;;;;;13.88;70.30;101913.50;5095040;28;20027;-63
2022/05/15 00:23:15;;;;;;;24.60;8.00;;;;;;;13.92;69.64;101904.72;5095577;28;20023;-63
2022/05/15 00:25:40;;;;;;;24.73;7.72;;;;;;;13.88;70.39;101907.38;5095278;28;20042;-63
2022/05/15 00:28:07;;;;;;;21.77;7.57;;;;;;;13.89;69.41;101901.22;5095082;28;20319;-63
2022/05/15 00:30:35;;;;;;;27.25;7.65;;;;;;;13.83;69.16;101907.44;5095007;28;20063;-63
2022/05/15 00:33:00;;;;;;;19.05;7.47;;;;;;;13.74;69.56;101898.75;5095160;28;20032;-63
2022/05/15 00:35:26;;;;;;;24.25;8.13;;;;;;;13.62;69.50;101890.97;5095029;28;20394;-63
2022/05/15 00:37:52;;;;;;;22.27;7.40;;;;;;;13.64;69.59;101903.25;5095352;28;20115;-63
2022/05/15 00:40:19;;;;;;;23.48;7.65;;;;;;;13.69;70.30;101908.44;5094825;28;20032;-62
2022/05/15 00:42:45;;;;;;;19.98;7.68;;;;;;;13.64;69.99;101892.72;5095038;28;20324;-63
2022/05/15 00:45:11;;;;;;;20.02;7.95;;;;;;;13.65;70.42;101899.72;5095257;28;20039;-62
2022/05/15 00:47:37;;;;;;;20.20;7.63;;;;;;;13.46;69.57;101866.59;5095032;28;20106;-63
2022/05/15 00:50:08;;;;;;;22.23;7.45;;;;;;;13.60;70.47;101901.53;5094709;28;20028;-62
2022/05/15 00:52:37;;;;;;;24.35;8.07;;;;;;;13.63;70.51;101896.22;5094273;28;20445;-62
2022/05/15 00:55:12;;;;;;;23.67;7.97;;;;;;;13.55;69.70;101887.53;5094730;28;20411;-63
2022/05/15 00:57:47;;;;;;;20.95;7.72;;;;;;;13.63;69.73;101895.38;5094895;28;20118;-62
2022/05/15 01:00:23;;;;;;;21.42;7.97;;;;;;;13.59;69.91;101890.13;5094759;28;20445;-62
2022/05/15 01:03:10;;;;;;;22.25;7.78;;;;;;;13.61;69.75;101889.25;5096585;28;20059;-62
2022/05/15 01:05:40;;;;;;;22.27;8.23;;;;;;;13.58;69.99;101891.00;5098878;28;20154;-62
2022/05/15 01:08:06;;;;;;;25.63;8.35;;;;;;;13.52;70.33;101898.94;5098858;28;20447;-62
2022/05/15 01:10:34;;;;;;;20.60;7.75;;;;;;;13.48;70.25;101894.63;5099121;28;20028;-62
2022/05/15 01:12:59;;;;;;;22.23;7.85;;;;;;;13.33;70.10;101880.72;5098796;28;20024;-62
2022/05/15 01:15:26;;;;;;;26.02;7.82;;;;;;;13.40;70.47;101896.41;5098704;28;20411;-62
2022/05/15 01:17:53;;;;;;;20.00;7.18;;;;;;;13.32;70.86;101894.75;5098628;28;20035;-62
2022/05/15 01:20:21;;;;;;;21.35;7.25;;;;;;;13.35;71.17;101895.59;5099005;28;20028;-62
2022/05/15 01:22:46;;;;;;;21.60;7.63;;;;;;;13.28;71.49;101891.28;5098432;28;20487;-62
2022/05/15 01:25:14;;;;;;;24.13;6.72;;;;;;;13.21;71.36;101893.06;5098676;28;20116;-64
2022/05/15 01:27:43;;;;;;;23.20;7.28;;;;;;;13.22;71.32;101904.44;5098681;28;20086;-62
2022/05/15 01:30:09;;;;;;;23.08;7.47;;;;;;;13.21;71.31;101902.69;5098386;28;20028;-62
2022/05/15 01:32:34;;;;;;;20.58;7.25;;;;;;;13.17;71.38;101893.97;5098543;28;20125;-62
2022/05/15 01:35:00;;;;;;;23.90;7.30;;;;;;;13.18;71.49;101905.34;5098544;28;20045;-62
2022/05/15 01:37:25;;;;;;;20.02;7.65;;;;;;;13.19;71.62;101896.59;5098505;28;20038;-62
2022/05/15 01:39:50;;;;;;;25.83;7.55;;;;;;;13.16;71.42;101892.22;5098013;28;20035;-63
2022/05/15 01:42:15;;;;;;;22.73;6.93;;;;;;;13.00;70.96;101880.03;5098203;28;20040;-62
2022/05/15 01:44:41;;;;;;;23.25;7.22;;;;;;;13.10;71.42;101899.25;5080324;28;20028;-62
2022/05/15 01:47:06;;;;;;;21.45;7.47;;;;;;;13.04;72.01;101907.16;5098495;28;20039;-62
2022/05/15 01:49:32;;;;;;;24.42;7.43;;;;;;;12.97;72.29;101901.09;5098299;28;20057;-62
2022/05/15 01:51:57;;;;;;;23.35;7.50;;;;;;;12.98;72.31;101900.22;5098076;28;20043;-62
2022/05/15 01:54:22;;;;;;;21.23;7.32;;;;;;;12.92;72.06;101899.38;5098239;28;20110;-62
2022/05/15 01:56:48;;;;;;;22.35;6.60;;;;;;;12.91;72.73;101906.38;5097905;28;20096;-63
2022/05/15 01:59:13;;;;;;;20.50;6.85;;;;;;;12.90;72.22;101905.50;5098052;28;20063;-62
2022/05/15 02:01:38;;;;;;;22.40;7.03;;;;;;;12.86;72.47;101901.16;5097491;28;20427;-62
2022/05/15 02:04:07;;;;;;;25.27;7.30;;;;;;;12.87;72.03;101900.28;5097878;28;20028;-62
2022/05/15 02:06:32;;;;;;;21.10;7.05;;;;;;;12.68;72.96;101896.00;5097819;28;20028;-62
2022/05/15 02:08:57;;;;;;;20.80;7.40;;;;;;;12.61;73.03;101889.06;5097846;28;20135;-62
2022/05/15 02:11:22;;;;;;;23.33;7.30;;;;;;;12.70;73.08;101890.75;5097613;28;20485;-62
2022/05/15 02:13:48;;;;;;;21.10;7.30;;;;;;;12.66;73.49;101896.88;5096486;28;20040;-62
2022/05/15 02:16:13;;;;;;;23.13;7.65;;;;;;;12.64;73.55;101881.13;5097731;28;20111;-62
2022/05/15 02:18:38;;;;;;;18.30;7.15;;;;;;;12.60;73.52;101875.94;5097516;28;20115;-62
2022/05/15 02:21:04;;;;;;;27.13;7.57;;;;;;;12.56;73.39;101880.31;5097538;28;20039;-62
2022/05/15 02:23:30;;;;;;;27.40;7.97;;;;;;;12.55;74.07;101886.44;5097480;28;20094;-62
2022/05/15 02:25:55;;;;;;;21.27;7.47;;;;;;;12.50;74.12;101880.34;5097816;28;20027;-62
2022/05/15 02:28:21;;;;;;;22.13;7.47;;;;;;;12.51;73.73;101889.97;5097034;28;20028;-63
2022/05/15 02:30:50;;;;;;;25.08;8.18;;;;;;;12.45;74.30;101892.63;5097077;28;20130;-63
2022/05/15 02:33:16;;;;;;;28.88;8.00;;;;;;;12.39;73.85;101893.53;5097429;28;20035;-63
2022/05/15 02:35:41;;;;;;;22.92;7.13;;;;;;;12.32;74.45;101891.78;5097309;28;20036;-63
2022/05/15 02:38:06;;;;;;;20.02;7.20;;;;;;;12.26;75.07;101883.06;5096764;28;20028;-63
2022/05/15 02:40:32;;;;;;;21.55;6.78;;;;;;;12.30;75.32;101883.03;5096688;28;20032;-63
2022/05/15 02:42:57;;;;;;;25.75;7.65;;;;;;;12.26;75.51;101883.94;5097019;28;20476;-63
2022/05/15 02:45:24;;;;;;;21.98;7.22;;;;;;;12.27;75.66;101883.06;5096807;28;20050;-63
2022/05/15 02:47:50;;;;;;;24.60;6.82;;;;;;;12.28;75.16;101874.31;5097139;28;20040;-63
2022/05/15 02:53:00;;;;;;;19.27;7.00;;;;;;;12.23;75.63;101880.47;5097002;28;20051;-63
2022/05/15 02:55:26;;;;;;;25.38;7.90;;;;;;;12.25;75.47;101876.09;5096964;28;20024;-63
2022/05/15 02:57:51;;;;;;;24.17;7.88;;;;;;;12.16;75.85;101877.84;5096866;28;20077;-63
2022/05/15 03:00:20;;;;;;;21.83;7.53;;;;;;;12.11;76.10;101879.63;5096849;28;20111;-63
2022/05/15 03:02:45;;;;;;;21.42;7.10;;;;;;;12.01;76.17;101850.78;5096694;28;20036;-64
2022/05/15 03:05:13;;;;;;;24.48;7.35;;;;;;;12.06;76.38;101865.66;5096937;28;20043;-63
2022/05/15 03:07:39;;;;;;;25.60;7.50;;;;;;;12.05;75.95;101865.66;5096573;28;20051;-63
2022/05/15 03:10:06;;;;;;;25.08;7.18;;;;;;;12.05;76.25;101865.66;5096388;28;20093;-63
2022/05/15 03:12:32;;;;;;;23.38;7.88;;;;;;;12.06;76.30;101864.78;5096478;28;20093;-63
2022/05/15 03:14:57;;;;;;;26.83;7.32;;;;;;;12.00;76.85;101864.78;5096483;28;20044;-63
2022/05/15 03:17:22;;;;;;;24.27;7.72;;;;;;;12.04;76.28;101862.16;5096348;28;20382;-63
2022/05/15 03:19:48;;;;;;;25.10;7.28;;;;;;;12.01;76.82;101862.16;5096403;28;20131;-63
2022/05/15 03:22:13;;;;;;;20.58;6.78;;;;;;;11.96;76.34;101860.41;5096445;28;20080;-63
2022/05/15 03:24:39;;;;;;;26.92;8.00;;;;;;;11.94;76.53;101864.81;5096541;28;20028;-62
2022/05/15 03:27:04;;;;;;;25.58;7.00;;;;;;;11.94;76.83;101875.31;5096174;28;20032;-63
2022/05/15 03:29:30;;;;;;;25.13;8.32;;;;;;;11.82;77.32;101863.06;5096273;28;20059;-63
2022/05/15 03:31:56;;;;;;;22.67;7.55;;;;;;;11.81;77.19;101866.56;5095906;28;20056;-63
2022/05/15 03:34:21;;;;;;;19.92;6.88;;;;;;;11.74;77.55;101863.06;5096321;28;20332;-63
2022/05/15 03:36:48;;;;;;;21.60;7.50;;;;;;;11.67;77.36;101868.31;5096216;28;20494;-64
2022/05/15 03:39:15;;;;;;;21.65;7.47;;;;;;;11.66;78.25;101859.59;5095945;28;20114;-63
2022/05/15 03:41:41;;;;;;;21.92;7.00;;;;;;;11.67;77.98;101871.81;5095786;28;20051;-63
2022/05/15 03:44:07;;;;;;;25.70;7.53;;;;;;;11.71;77.88;101854.34;5096064;28;20110;-63
2022/05/15 03:46:33;;;;;;;21.55;7.45;;;;;;;11.66;78.16;101856.09;5095961;28;20051;-63
2022/05/15 03:48:58;;;;;;;23.77;7.97;;;;;;;11.64;78.61;101861.31;5095739;28;20035;-63
2022/05/15 03:51:24;;;;;;;22.30;7.32;;;;;;;11.61;78.59;101865.69;5095847;28;20089;-63
2022/05/15 03:53:50;;;;;;;20.38;7.43;;;;;;;11.60;78.46;101858.75;5095928;28;20024;-63
2022/05/15 03:56:16;;;;;;;23.30;7.85;;;;;;;11.57;78.78;101856.13;5095706;28;20032;-63
2022/05/15 03:58:42;;;;;;;22.65;6.93;;;;;;;11.61;78.27;101857.84;5095786;28;20119;-62
2022/05/15 04:01:08;;;;;;;22.77;7.57;;;;;;;11.59;78.60;101860.50;5095467;28;20032;-63
2022/05/15 04:03:33;;;;;;;23.23;7.50;;;;;;;11.61;78.45;101853.47;5095837;28;20038;-63
2022/05/15 04:05:59;;;;;;;23.92;7.57;;;;;;;11.50;78.50;101843.00;5095406;28;20032;-63
2022/05/15 04:08:27;;;;;;;25.77;7.32;;;;;;;11.56;78.83;101857.00;5095282;28;20497;-62
2022/05/15 04:10:52;;;;;;;24.85;7.32;;;;;;;11.57;79.20;101859.63;5095402;28;20115;-63
2022/05/15 04:13:18;;;;;;;24.08;7.65;;;;;;;11.61;79.05;101856.09;5095182;28;20064;-63
2022/05/15 04:15:43;;;;;;;24.60;8.05;;;;;;;11.63;79.20;101871.81;5095471;28;20028;-64
2022/05/15 04:18:09;;;;;;;22.40;7.50;;;;;;;11.63;78.76;101870.06;5095355;28;20047;-63
2022/05/15 04:20:35;;;;;;;22.85;8.07;;;;;;;11.64;78.35;101874.44;5095139;28;20044;-63
2022/05/15 04:23:00;;;;;;;24.50;7.78;;;;;;;11.66;78.85;101870.06;5094966;28;20028;-63
2022/05/15 04:25:26;;;;;;;26.40;7.57;;;;;;;11.65;78.82;101870.06;5095159;28;20032;-63
2022/05/15 04:27:51;;;;;;;26.70;8.20;;;;;;;11.66;78.82;101874.44;5095478;28;20077;-63
2022/05/15 04:30:20;;;;;;;21.70;7.18;;;;;;;11.70;78.31;101871.81;5095152;28;20117;-63
2022/05/15 04:32:45;;;;;;;24.95;7.90;;;;;;;11.68;79.47;101873.56;5095205;28;20047;-63
2022/05/15 04:35:11;;;;;;;21.55;7.38;;;;;;;11.67;78.91;101871.81;5095296;28;20032;-63
2022/05/15 04:37:39;;;;;;;24.00;7.93;;;;;;;11.66;79.31;101862.19;5094853;28;20047;-63
2022/05/15 04:40:11;;;;;;;22.88;8.07;;;;;;;11.69;78.93;101872.69;5095333;28;20131;-63
2022/05/15 04:42:36;;;;;;;23.15;8.13;;;;;;;11.73;79.24;101863.06;5094863;28;20353;-63
2022/05/15 04:45:02;;;;;;;22.58;8.13;;;;;;;11.75;79.20;101869.19;5095051;28;20030;-63
2022/05/15 04:47:27;;;;;;;22.40;8.00;;;;;;;11.66;79.44;101837.72;5095227;28;20039;-64
2022/05/15 04:49:52;;;;;;;25.80;8.27;;;;;;;11.81;79.66;101863.94;5095007;28;20060;-63
2022/05/15 04:52:18;;;;;;;21.50;7.60;;;;;;;11.80;79.62;101865.69;5095130;28;20123;-62
2022/05/15 04:54:43;;;;;;;22.45;7.85;;;;;;;11.80;79.95;101860.47;5095018;28;20032;-63
2022/05/15 04:57:09;;;;;;;21.27;7.75;;;;;;;11.81;79.19;101845.59;5094799;28;20028;-62
2022/05/15 04:59:34;;;;;;;24.52;7.55;;;;;;;11.88;79.18;101854.34;5094585;28;20426;-61
2022/05/15 05:01:59;;;;;;;27.80;8.40;;;;;;;11.95;79.55;101858.69;5094185;28;20032;-63
2022/05/15 05:04:25;;;;;;;23.75;7.90;;;;;;;11.85;79.55;101848.22;5094589;28;20040;-64
2022/05/15 05:06:51;;;;;;;28.63;8.82;;;;;;;11.95;79.10;101859.53;5094513;28;20071;-62
2022/05/15 05:09:16;;;;;;;22.45;8.32;;;;;;;12.02;78.80;101863.91;5094681;28;20051;-63
2022/05/15 05:11:42;;;;;;;24.33;8.13;;;;;;;12.08;79.22;101869.16;5094621;28;20042;-63
2022/05/15 05:14:08;;;;;;;27.08;8.35;;;;;;;12.08;79.27;101863.91;5094871;28;20043;-62
2022/05/15 05:16:33;;;;;;;29.77;8.23;;;;;;;12.20;78.85;101876.97;5094705;28;20074;-62
2022/05/15 05:18:59;;;;;;;28.30;8.25;;;;;;;12.25;78.99;101874.34;5094596;28;20032;-63
2022/05/15 05:21:25;;;;;;;25.23;8.02;;;;;;;12.33;78.71;101882.16;5094325;28;20032;-62
2022/05/15 05:23:50;;;;;;;22.38;8.23;;;;;;;12.41;78.22;101878.63;5094505;28;20431;-62
2022/05/15 05:26:16;;;;;;;24.15;8.35;;;;;;;12.49;78.42;101875.97;5094652;28;20100;-62
2022/05/15 05:28:41;;;;;;;28.63;8.52;;;;;;;12.57;77.73;101882.06;5094440;28;20032;-62
2022/05/15 05:31:06;;;;;;;22.13;8.00;;;;;;;12.62;77.78;101871.53;5094406;28;20052;-63
2022/05/15 05:33:32;;;;;;;25.75;8.52;;;;;;;12.65;77.73;101864.50;5094483;28;20032;-63
2022/05/15 05:35:57;;;;;;;25.80;8.80;;;;;;;12.74;77.61;101864.47;5094096;28;20028;-63
2022/05/15 05:38:23;;;;;;;26.08;9.02;;;;;;;12.80;77.72;101872.31;5094866;28;20028;-63
2022/05/15 05:40:48;;;;;;;26.45;9.20;;;;;;;12.93;77.37;101862.59;5094295;28;20024;-66
2022/05/15 05:43:14;;;;;;;24.00;9.75;;;;;;;13.12;76.25;101856.31;5094280;28;20040;-62
2022/05/15 05:45:39;;;;;;;26.98;8.88;;;;;;;13.16;75.93;101846.69;5094624;28;20093;-62
2022/05/15 05:48:05;;;;;;;24.55;9.85;;;;;;;13.20;76.09;101862.41;5095135;28;20028;-63
2022/05/15 05:50:31;;;;;;;24.75;9.65;;;;;;;13.27;76.13;101871.13;5098228;28;20032;-62
2022/05/15 05:52:57;;;;;;;23.80;9.85;;;;;;;13.29;76.46;101866.72;5098037;28;20032;-62
2022/05/15 05:55:23;;;;;;;21.70;9.50;;;;;;;13.39;75.85;101865.75;5097932;28;20020;-62
2022/05/15 05:57:48;;;;;;;23.13;9.25;;;;;;;13.49;75.69;101863.94;5098303;28;20120;-62
2022/05/15 06:00:24;;;;;;;25.63;9.52;;;;;;;13.56;75.07;101863.84;5098067;28;20071;-62
2022/05/15 06:02:50;;;;;;;23.20;9.57;;;;;;;13.62;75.58;101851.53;5097857;28;20028;-63
2022/05/15 06:05:16;;;;;;;23.63;8.90;;;;;;;13.77;74.53;101862.78;5098302;28;20028;-62
2022/05/15 06:07:41;;;;;;;24.02;9.25;;;;;;;13.91;74.16;101875.78;5097502;28;20166;-62
2022/05/15 06:10:09;;;;;;;24.23;10.52;;;;;;;13.96;74.08;101868.72;5097505;28;20032;-62
2022/05/15 06:12:35;;;;;;;20.92;9.60;;;;;;;14.05;73.86;101871.22;5097817;28;20071;-62
2022/05/15 06:15:00;;;;;;;21.08;9.48;;;;;;;14.03;73.95;101851.06;5097400;28;20032;-62
2022/05/15 06:17:29;;;;;;;27.63;10.13;;;;;;;14.23;73.65;101870.13;5097687;28;20118;-62
2022/05/15 06:19:55;;;;;;;28.13;10.50;;;;;;;14.35;72.92;101861.25;5079606;28;20044;-63
2022/05/15 06:22:21;;;;;;;23.35;10.32;;;;;;;14.47;73.02;101858.47;5097587;28;20039;-62
2022/05/15 06:24:46;;;;;;;23.92;10.30;;;;;;;14.55;71.88;101853.97;5097443;28;20024;-62
2022/05/15 06:27:12;;;;;;;23.48;10.20;;;;;;;14.68;71.90;101857.31;5079938;28;20040;-62
2022/05/15 06:29:39;;;;;;;24.73;10.90;;;;;;;14.79;71.69;101868.56;5097525;28;20035;-62
2022/05/15 06:32:05;;;;;;;26.70;10.95;;;;;;;14.81;71.95;101864.16;5096577;28;20083;-62
2022/05/15 06:34:30;;;;;;;23.83;11.27;;;;;;;14.89;71.20;101857.00;5094120;28;20055;-63
2022/05/15 06:36:56;;;;;;;24.83;10.85;;;;;;;14.90;70.84;101856.09;5094238;28;20043;-62
2022/05/15 06:39:21;;;;;;;27.10;11.65;;;;;;;14.98;71.07;101851.59;5097420;28;20020;-62
2022/05/15 06:41:50;;;;;;;24.27;10.75;;;;;;;15.04;70.30;101855.91;5097278;28;20032;-61
2022/05/15 06:44:18;;;;;;;20.45;10.77;;;;;;;15.15;70.08;101856.59;5097137;28;20035;-61
2022/05/15 06:46:45;;;;;;;27.60;11.50;;;;;;;15.25;69.60;101851.13;5097203;28;20039;-61
2022/05/15 06:49:11;;;;;;;23.08;10.23;;;;;;;15.45;69.16;101855.19;5096953;28;20035;-62
2022/05/15 06:51:36;;;;;;;22.23;11.13;;;;;;;15.58;68.48;101862.06;5096920;28;20339;-61
2022/05/15 06:54:01;;;;;;;23.05;10.60;;;;;;;15.50;68.79;101834.91;5096948;28;20028;-61
2022/05/15 06:59:10;;;;;;;20.45;11.10;;;;;;;15.76;68.45;101858.22;5096315;28;20557;-62
2022/05/15 07:01:36;;;;;;;25.23;11.35;;;;;;;15.81;68.05;101853.69;5096282;28;20114;-63
2022/05/15 07:04:01;;;;;;;23.27;11.38;;;;;;;15.84;68.05;101848.38;5096664;28;20397;-63
2022/05/15 07:06:26;;;;;;;20.10;10.95;;;;;;;15.99;68.04;101856.84;5096568;28;20027;-62
2022/05/15 07:08:52;;;;;;;24.15;11.15;;;;;;;16.05;67.24;101858.50;5078321;28;20028;-63
2022/05/15 07:11:17;;;;;;;20.67;10.85;;;;;;;16.15;67.16;101869.75;5078861;28;20067;-62
2022/05/15 07:13:42;;;;;;;24.45;11.38;;;;;;;16.17;66.64;101862.66;5096345;28;20039;-57
2022/05/15 07:16:09;;;;;;;21.42;10.68;;;;;;;16.21;66.80;101862.59;5096139;28;20036;-62
2022/05/15 07:18:35;;;;;;;21.13;10.30;;;;;;;16.23;66.38;101863.44;5096400;28;20035;-63
2022/05/15 07:21:01;;;;;;;23.15;10.75;;;;;;;16.37;66.27;101865.78;5103216;28;20417;-63
2022/05/15 07:23:26;;;;;;;23.13;10.93;;;;;;;16.41;66.61;101874.50;5097120;28;20028;-63
2022/05/15 07:25:51;;;;;;;21.10;11.13;;;;;;;16.48;66.04;101874.34;5094709;28;20059;-63
2022/05/15 07:28:17;;;;;;;23.75;11.02;;;;;;;16.47;65.97;101862.03;5097736;28;20032;-63
2022/05/15 07:30:42;;;;;;;25.50;11.10;;;;;;;16.58;65.41;101865.31;5105060;28;20044;-63
2022/05/15 07:33:08;;;;;;;22.10;11.52;;;;;;;16.65;64.98;101866.94;5113313;28;20142;-63
2022/05/15 07:35:34;;;;;;;22.38;11.18;;;;;;;16.76;65.14;101868.50;5114690;28;20043;-62
2022/05/15 07:37:59;;;;;;;22.38;11.40;;;;;;;16.83;64.19;101865.66;5114839;28;20077;-62
2022/05/15 07:40:25;;;;;;;17.02;11.07;;;;;;;16.89;63.87;101854.97;5114680;28;20070;-64
2022/05/15 07:42:50;;;;;;;23.05;10.60;;;;;;;16.99;64.29;101850.31;5114692;28;20400;-62
2022/05/15 07:45:16;;;;;;;17.23;10.57;;;;;;;16.98;63.81;101838.84;5114364;28;20027;-63
2022/05/15 07:47:42;;;;;;;17.33;9.90;;;;;;;17.18;64.23;101848.09;5114221;28;20656;-63
2022/05/15 07:50:08;;;;;;;20.98;11.23;;;;;;;17.30;62.56;101853.09;5114793;28;20091;-63
2022/05/15 07:52:34;;;;;;;23.73;11.82;;;;;;;17.39;62.37;101856.38;5114571;28;20126;-64
2022/05/15 07:55:00;;;;;;;19.63;10.85;;;;;;;17.45;62.70;101852.69;5114693;28;20118;-64
2022/05/15 07:57:25;;;;;;;21.95;10.73;;;;;;;17.47;62.42;101845.59;5114935;28;20043;-63
2022/05/15 07:59:50;;;;;;;17.92;11.15;;;;;;;17.60;61.49;101851.44;5115932;28;20462;-63
2022/05/15 08:02:17;;;;;;;19.92;11.40;;;;;;;17.65;62.02;101853.09;5116584;28;20043;-63
2022/05/15 08:10:11;;;;;;;19.35;11.30;;;;;;;17.95;58.61;101853.16;5111541;28;20100;-62
2022/05/15 08:12:37;;;;;;;19.52;10.80;;;;;;;18.00;58.74;101843.31;5114644;28;20038;-64
2022/05/15 08:15:05;;;;;;;16.55;10.63;;;;;;;18.09;58.57;101843.03;5115681;28;20035;-64
2022/05/15 08:17:31;;;;;;;17.90;10.80;;;;;;;18.20;58.67;101838.28;5115434;28;20042;-64
2022/05/15 08:25:24;;;;;;;23.40;11.00;;;;;;;18.52;56.84;101823.22;5115380;28;20124;-63
2022/05/15 08:27:49;;;;;;;33.38;10.77;;;;;;;18.60;56.33;101819.44;5115692;28;20467;-63
2022/05/15 08:30:17;;;;;;;19.03;11.20;;;;;;;18.74;56.62;101824.31;5115186;28;20155;-63
2022/05/15 08:32:43;;;;;;;17.90;9.82;;;;;;;18.85;56.73;101814.25;5115611;28;20313;-63
2022/05/15 08:35:08;;;;;;;20.95;10.23;;;;;;;18.88;55.93;101815.91;5115337;28;20070;-64
2022/05/15 08:37:34;;;;;;;19.85;10.30;;;;;;;19.00;56.12;101810.22;5094675;28;20051;-64
2022/05/15 08:39:59;;;;;;;18.67;10.33;;;;;;;19.09;52.28;101809.91;5096674;28;20443;-63
2022/05/15 08:42:50;;;;;;;17.48;9.82;;;;;;;19.14;54.63;101797.34;5094757;28;20270;-63
2022/05/15 08:45:20;;;;;;;17.73;10.45;;;;;;;19.30;51.45;101801.22;5083470;28;20443;-64
2022/05/15 08:47:48;;;;;;;21.05;10.00;;;;;;;19.36;52.02;101800.16;5094874;28;20028;-64
2022/05/15 08:50:24;;;;;;;18.75;10.20;;;;;;;19.48;52.28;101800.59;5094752;28;20024;-64
2022/05/15 08:52:59;;;;;;;17.00;9.52;;;;;;;19.58;52.43;101801.16;5103610;28;20431;-64
2022/05/15 08:55:34;;;;;;;21.60;9.30;;;;;;;19.68;51.35;101791.94;5097434;28;20039;-65
2022/05/15 08:58:04;;;;;;;17.38;9.77;;;;;;;19.83;51.19;101785.19;5115135;28;20478;-63
2022/05/15 09:00:38;;;;;;;16.63;8.60;;;;;;;20.37;50.55;101790.25;5096910;28;20169;-63
2022/05/15 09:03:17;;;;;;;15.13;8.55;;;;;;;21.44;46.70;101788.53;5115466;28;20143;-63
2022/05/15 09:06:07;;;;;;;16.60;8.00;;;;;;;22.84;43.18;101780.22;5115302;28;20031;-64
2022/05/15 09:08:55;;;;;;;15.43;7.13;;;;;;;24.05;40.99;101773.91;5115200;28;20090;-63
2022/05/15 09:11:55;;;;;;;16.35;7.20;;;;;;;24.69;38.42;101771.19;5114697;28;20032;-64
2022/05/15 09:14:53;;;;;;;15.68;6.28;;;;;;;25.37;36.46;101771.63;5115505;28;20492;-64
2022/05/15 09:17:51;;;;;;;15.98;7.43;;;;;;;25.46;36.25;101778.25;5115170;28;20399;-64
2022/05/15 09:20:26;;;;;;;16.25;7.15;;;;;;;25.05;36.85;101780.75;5115201;28;20024;-64
2022/05/15 09:23:25;;;;;;;13.90;6.20;;;;;;;24.71;38.08;101773.78;5113977;28;20442;-65
2022/05/15 09:25:57;;;;;;;16.10;6.55;;;;;;;24.02;38.44;101774.09;5098280;28;20055;-63
2022/05/15 09:28:26;;;;;;;12.73;5.53;;;;;;;23.56;37.04;101787.22;5112796;28;20059;-65
2022/05/15 09:30:55;;;;;;;13.60;5.55;;;;;;;23.21;38.43;101784.53;5117189;28;20052;-64
2022/05/15 09:33:33;;;;;;;14.38;6.22;;;;;;;22.95;38.68;101774.34;5117521;28;20122;-63
2022/05/15 09:36:23;;;;;;;11.15;5.13;;;;;;;22.99;38.87;101775.06;5116912;28;20434;-64
2022/05/15 09:38:51;;;;;;;11.73;5.20;;;;;;;22.91;37.54;101772.75;5101154;28;20027;-64
2022/05/15 09:44:28;;;;;;;12.55;5.82;;;;;;;22.75;38.58;101767.28;5107366;28;20119;-65
2022/05/15 09:47:03;;;;;;;9.10;4.65;;;;;;;22.81;38.51;101766.16;5103188;28;20024;-63
2022/05/15 09:49:33;;;;;;;6.95;4.47;;;;;;;22.79;37.01;101757.34;5115494;28;20036;-63
2022/05/15 09:52:02;;;;;;;11.98;4.18;;;;;;;22.89;36.93;101754.13;5119040;28;20063;-63
2022/05/15 09:54:42;;;;;;;11.18;4.70;;;;;;;22.87;37.01;101757.81;5118437;28;20032;-62
2022/05/15 09:57:22;;;;;;;14.75;4.90;;;;;;;22.90;37.32;101741.66;5118483;28;20110;-64
2022/05/15 09:59:59;;;;;;;11.93;4.60;;;;;;;23.20;36.02;101753.44;5118576;28;20034;-64
2022/05/15 10:02:42;;;;;;;12.85;4.70;;;;;;;23.31;34.77;101746.69;5118671;28;20044;-64
2022/05/15 10:05:20;;;;;;;12.85;4.07;;;;;;;23.38;35.51;101761.47;5118115;28;20256;-57
2022/05/15 10:07:59;;;;;;;9.43;4.10;;;;;;;23.46;35.35;101767.25;5118412;28;20039;-57
2022/05/15 10:10:30;;;;;;;9.48;4.55;;;;;;;23.43;33.67;101752.25;5118231;28;20028;-57
2022/05/15 10:13:11;;;;;;;9.73;3.67;;;;;;;23.41;33.67;101770.16;5118104;28;20051;-58
2022/05/15 10:15:44;;;;;;;9.30;4.13;;;;;;;23.53;32.91;101760.69;5118137;28;20451;-62
2022/05/15 10:18:20;;;;;;;10.38;3.72;;;;;;;23.46;33.25;101756.56;5117882;28;20051;-62
2022/05/15 10:20:47;;;;;;;13.20;4.60;;;;;;;23.62;32.69;101743.28;5117931;28;20338;-62
2022/05/15 10:23:23;;;;;;;15.52;4.40;;;;;;;23.58;33.39;101739.91;5118138;28;20107;-62
2022/05/15 10:25:48;;;;;;;10.65;4.70;;;;;;;23.66;33.68;101742.19;5117896;28;20168;-62
2022/05/15 10:28:44;;;;;;;11.70;4.00;;;;;;;23.87;34.22;101741.91;5117640;28;20122;-62
2022/05/15 10:31:31;;;;;;;12.05;4.05;;;;;;;24.15;34.59;101735.00;5117989;28;20075;-62
2022/05/15 10:34:00;;;;;;;10.77;4.22;;;;;;;24.13;32.28;101739.56;5117306;28;20032;-62
2022/05/15 10:36:43;;;;;;;10.98;3.83;;;;;;;24.12;32.75;101728.00;5116799;28;20027;-63
2022/05/15 10:39:30;;;;;;;7.93;3.72;;;;;;;24.12;32.38;101717.31;5117788;28;20092;-62
2022/05/15 10:42:13;;;;;;;9.88;4.35;;;;;;;24.18;32.57;101713.44;5117332;28;20039;-62
2022/05/15 10:45:03;;;;;;;10.60;4.70;;;;;;;24.23;31.85;101716.72;5117431;28;20031;-62
2022/05/15 10:47:40;;;;;;;10.20;3.95;;;;;;;24.24;32.85;101708.63;5117244;28;20081;-62
2022/05/15 10:50:14;;;;;;;10.40;4.22;;;;;;;24.26;32.36;101697.84;5117506;28;20107;-62
2022/05/15 10:53:00;;;;;;;13.40;4.55;;;;;;;24.23;32.51;101695.34;5117516;28;20088;-62
2022/05/15 10:58:40;;;;;;;9.25;4.70;;;;;;;24.17;32.65;101704.56;5117431;28;20088;-63
2022/05/15 11:01:35;;;;;;;11.25;4.72;;;;;;;24.20;34.73;101709.75;5116853;28;20077;-62
2022/05/15 11:04:19;;;;;;;11.13;4.30;;;;;;;24.33;33.10;101696.56;5116785;28;20031;-62
2022/05/15 11:06:56;;;;;;;11.98;3.90;;;;;;;24.18;34.37;101706.28;5117295;28;20338;-62
2022/05/15 11:09:46;;;;;;;8.15;4.10;;;;;;;24.22;33.14;101705.16;5116738;28;20024;-64
2022/05/15 11:12:28;;;;;;;11.40;5.13;;;;;;;24.31;32.74;101706.47;5117119;28;20491;-60
2022/05/15 11:15:21;;;;;;;10.68;3.97;;;;;;;24.40;33.98;101705.97;5117299;28;20032;-57
2022/05/15 11:18:08;;;;;;;14.20;4.35;;;;;;;24.42;33.44;101689.78;5116921;28;20030;-62
2022/05/15 11:20:48;;;;;;;8.30;3.63;;;;;;;24.53;33.88;101690.91;5116974;28;20095;-63
2022/05/15 11:23:18;;;;;;;7.85;3.70;;;;;;;24.72;32.36;101685.34;5116924;28;20088;-62
2022/05/15 11:25:52;;;;;;;9.18;3.58;;;;;;;24.68;31.44;101688.28;5116917;28;20032;-62
2022/05/15 11:28:43;;;;;;;8.18;3.72;;;;;;;24.67;31.42;101679.41;5116831;28;20039;-62
2022/05/15 11:31:20;;;;;;;9.90;3.72;;;;;;;24.82;32.01;101669.59;5099145;28;20416;-61
2022/05/15 11:34:03;;;;;;;7.65;3.10;;;;;;;24.83;31.31;101663.28;5116662;28;20100;-62
2022/05/15 11:36:49;;;;;;;9.10;3.15;;;;;;;24.90;29.61;101659.28;5116737;28;20431;-62
2022/05/15 11:39:15;;;;;;;6.93;3.10;;;;;;;24.85;30.31;101648.00;5116425;28;20035;-61
2022/05/15 11:41:43;;;;;;;9.30;3.25;;;;;;;24.86;30.27;101663.09;5117020;28;20046;-63
2022/05/15 11:44:35;;;;;;;8.80;3.40;;;;;;;25.07;30.86;101651.13;5116207;28;20024;-63
2022/05/15 11:47:20;;;;;;;7.45;2.95;;;;;;;25.11;29.60;101649.13;5115985;28;20019;-63
2022/05/15 11:50:05;;;;;;;10.60;3.20;;;;;;;25.15;30.04;101640.78;5116530;28;20031;-62